Wednesday, May 23, 2018, 9:08 AM EDT
Back to Local

KCEF, Chicopee Falls / Westover Air Force Base

Location: Chicopee, MA, United States Lat: 42.2
Local Time: 9:08 AM EDT (13:08 GMT) Lon: -72.533
Time Zone: US/Eastern Elev: 246 ft

Show me the last for .
Show Decoded

2018-05-23 08:56 METAR KCEF 231256Z 06003KT 10SM FEW029 FEW100 SCT250 17/13 A2989 RMK AO2A SLPNO
                 T01690132 =
2018-05-23 07:56 METAR KCEF 231156Z 13003KT 6SM BR FEW004 SCT010 SCT250 15/13 A2989 RMK AO2A
                 SLP128 70004 T01450130 10145 20125 52004 =
2018-05-23 07:41 METAR KCEF 231141Z 00000KT 6SM BR SCT004 SCT250 14/13 A2989 RMK AO2A SLP128 =
2018-05-23 07:26 METAR KCEF 231126Z 00000KT 2 1/2SM BR OVC004 14/13 A2989 RMK AO2A SLP128 =
2018-05-23 06:56 METAR KCEF 231056Z 00000KT 2SM BR OVC003 13/13 A2988 RMK AO2A SLP125 T01320126 =
2018-05-23 05:56 METAR KCEF 230956Z AUTO 20003KT 7SM OVC003 13/12 A2988 RMK AO2 SLP124 T01290123
                 =
2018-05-23 04:56 METAR KCEF 230856Z AUTO 19005KT 7SM OVC003 13/12 A2988 RMK AO2 SLP124 T01280123
                 55009 =
2018-05-23 03:56 METAR KCEF 230756Z AUTO 18006KT 7SM OVC003 13/12 A2988 RMK AO2 SLP124 T01270122
                 =
2018-05-23 02:56 METAR KCEF 230656Z AUTO 19003KT 9SM OVC003 13/12 A2988 RMK AO2 SLP124 T01250119
                 =
2018-05-23 01:56 METAR KCEF 230556Z AUTO 20005KT 10SM OVC004 13/12 A2990 RMK AO2 SLPNO T01250119
                 10128 20123 57018 =
2018-05-23 00:56 METAR KCEF 230456Z AUTO 19005KT 10SM OVC004 13/12 A2992 RMK AO2 SLPNO T01260120
                 401750094 =
2018-05-22 23:56 METAR KCEF 230356Z AUTO 17007KT 8SM OVC004 13/12 A2993 RMK AO2 SLPNO T01250117 =
2018-05-22 23:31 METAR KCEF 230331Z AUTO 19007KT 6SM BR OVC004 13/12 A2995 RMK AO2 SLPNO =
2018-05-22 23:01 METAR KCEF 230301Z AUTO 20006KT 10SM BKN006 OVC011 13/11 A2996 RMK AO2 CIG
                 006V009 SLPNO =
2018-05-22 22:56 METAR KCEF 230256Z 19008KT 10SM SCT007 OVC012 13/11 A2996 RMK AO2A SLPNO
                 T01280109 =
2018-05-22 21:56 METAR KCEF 230156Z 17006KT 10SM SCT013 BKN016 OVC025 13/10 A2997 RMK AO2A SLP156
                 T01260101 =
2018-05-22 21:32 METAR KCEF 230132Z 18005KT 10SM FEW010 BKN015 OVC038 13/10 A2998 RMK AO2A SLP159
                 =
2018-05-22 21:25 METAR KCEF 230125Z 19005KT 10SM SCT039 OVC070 12/10 A2998 RMK AO2A SLP159 =
2018-05-22 20:56 METAR KCEF 230056Z 17005KT 10SM SCT040 OVC070 13/11 A2999 RMK AO2A SLP162 WND
                 DATA ESTMD ALSTG ESTMD $ =
2018-05-22 20:20 METAR KCEF 230020Z 18006KT 10SM SCT039 OVC070 13/09 A2999 RMK AO2A WND DATA
                 ESTMD ALSTG ESTMD $ =
2018-05-22 19:56 METAR KCEF 222356Z 18006KT 10SM -RA SCT039 OVC070 13/09 A3000 RMK AO2A SLP165
                 P0001 60001 T01260091 10175 20126 57021 =
2018-05-22 18:56 METAR KCEF 222256Z 18009KT 10SM -RA FEW020 OVC043 14/09 A3002 RMK AO2A SLP172
                 P0000 T01370087 =
2018-05-22 17:56 METAR KCEF 222156Z 17007KT 10SM -RA FEW018 OVC050 15/12 A3004 RMK AO2A SLP179
                 P0000 T01470117 =
2018-05-22 16:56 METAR KCEF 222056Z 19011KT 10SM -RA FEW015 BKN065 OVC080 16/11 A3006 RMK AO2A
                 SLP186 P0000 60000 T01580108 =
2018-05-22 16:42 METAR KCEF 222042Z 19009KT 10SM -RA EEW015 BKN065 OVC080 16/10 A3006 RMK AO2A
                 SLP186 =
2018-05-22 15:56 METAR KCEF 221956Z 19012KT 10SM BKN070 OVC090 17/09 A3007 RMK AO2A SLP189 P0000
                 T01720091 =
2018-05-22 14:56 METAR KCEF 221856Z COR 20006KT 10SM -RA SCT060 OVC080 17/14 A3009 RMK AO2A
                 SLP196 T01730136 COR 1859 =
2018-05-22 13:56 METAR KCEF 221756Z 18003KT 10SM -RA SCT060 OVC080 17/14 A3011 RMK AO2A SLP203
                 P0002 60003 T01740139 10174 20135 57013 =
2018-05-22 12:56 METAR KCEF 221656Z 17005KT 10SM -RA SCT060 OVC090 17/14 A3012 RMK AO2A SLP206
                 P0001 T01690136 =
2018-05-22 11:58 METAR KCEF 221558Z COR 00000KT 10SM -RA FEW060 OVC090 17/12 A3013 RMK AO2A
                 SLP209 COR 1600 =
2018-05-22 11:56 METAR KCEF 221556Z 19003KT 10SM -RA SCT060 BKN090 OVC140 17/12 A3014 RMK AO2A
                 SLP212 P0000 T01690124 =
2018-05-22 11:04 METAR KCEF 221504Z 00000KT 10SM -RA FEW060 BKN100 OVC170 17/12 A3015 RMK AO2A
                 SLP216 =
2018-05-22 10:56 METAR KCEF 221456Z 00000KT 10SM FEW060 BKN100 OVC170 17/12 A3014 RMK AO2A SLP212
                 P0000 60000 T01690122 57010 =
2018-05-22 10:30 METAR KCEF 221430Z AUTO 00000KT 10SM FEW100 SCT180 SCT200 16/12 A3015 RMK AO2
                 RAE1356DZB1356E09RAB09E28DZB28E30 SLP216 =
2018-05-22 09:56 METAR KCEF 221356Z 08003KT 10SM -RA SCT060 BKN100 15/12 A3015 RMK AO2A SLP216
                 P0000 T01530119 =
2018-05-22 09:53 METAR KCEF 221353Z AUTO 00000KT 10SM CLR 15/12 A3015 RMK AO2 SLP216 =

Support USWX by starting your Amazon purchase here.